Time;durP1;ratioP1;P1;durP2;ratioP2;P2;SDS_P1;SDS_P2;PMS_P1;PMS_P2;Temp;Humidity;BMP_temperature;BMP_pressure;BME280_temperature;BME280_humidity;BME280_pressure;Samples;Min_cycle;Max_cycle;Signal;HPM_P1;HPM_P2
2022/04/14 00:01:36;;;;;;;2.50;2.30;;;;;;;;;;4941857;29;20211;-86
2022/04/14 00:04:05;;;;;;;7.43;2.97;;;;;;;;;;4942279;29;20241;-86
2022/04/14 00:06:33;;;;;;;1.17;1.17;;;;;;;;;;4942245;29;20218;-86
2022/04/14 00:09:02;;;;;;;3.90;2.53;;;;;;;;;;4942362;29;20222;-86
2022/04/14 00:11:32;;;;;;;5.77;3.97;;;;;;;;;;4958114;29;20212;-86
2022/04/14 00:14:00;;;;;;;2.00;1.90;;;;;;;;;;4942348;29;20214;-86
2022/04/14 00:16:29;;;;;;;3.67;2.57;;;;;;;;;;4943222;29;20238;-87
2022/04/14 00:18:57;;;;;;;3.27;2.90;;;;;;;;;;4958428;28;20214;-86
2022/04/14 00:21:26;;;;;;;2.77;2.57;;;;;;;;;;4954926;28;20207;-86
2022/04/14 00:23:54;;;;;;;1.27;1.27;;;;;;;;;;4961581;28;20205;-86
2022/04/14 00:26:22;;;;;;;0.50;0.50;;;;;;;;;;4961162;28;20210;-87
2022/04/14 00:28:52;;;;;;;3.73;3.43;;;;;;;;;;4960986;28;20249;-86
2022/04/14 00:31:21;;;;;;;2.63;1.63;;;;;;;;;;4978164;28;20216;-86
2022/04/14 00:33:49;;;;;;;2.67;2.30;;;;;;;;;;4979066;28;20225;-86
2022/04/14 00:36:18;;;;;;;3.33;3.03;;;;;;;;;;4960793;28;20217;-87
2022/04/14 00:38:46;;;;;;;5.80;3.50;;;;;;;;;;4961094;28;20206;-86
2022/04/14 00:41:14;;;;;;;2.93;1.43;;;;;;;;;;4961352;28;20202;-86
2022/04/14 00:43:43;;;;;;;3.50;2.60;;;;;;;;;;4961589;28;20209;-86
2022/04/14 00:46:13;;;;;;;5.37;2.60;;;;;;;;;;4961222;28;20231;-86
2022/04/14 00:48:41;;;;;;;9.30;7.67;;;;;;;;;;4960860;28;20241;-86
2022/04/14 00:51:09;;;;;;;4.83;3.87;;;;;;;;;;4961339;28;20229;-86
2022/04/14 00:53:39;;;;;;;4.70;3.27;;;;;;;;;;4960589;28;20209;-86
2022/04/14 00:56:08;;;;;;;3.03;2.57;;;;;;;;;;4961028;28;20222;-86
2022/04/14 00:58:36;;;;;;;0.90;0.90;;;;;;;;;;4961231;28;20207;-86
2022/04/14 01:01:05;;;;;;;3.07;2.80;;;;;;;;;;4960855;28;20210;-86
2022/04/14 01:03:36;;;;;;;1.63;1.60;;;;;;;;;;4961482;28;20209;-86
2022/04/14 01:06:05;;;;;;;2.03;1.90;;;;;;;;;;4961916;28;20222;-86
2022/04/14 01:08:34;;;;;;;0.60;0.60;;;;;;;;;;4978597;28;20216;-86
2022/04/14 01:11:04;;;;;;;2.43;1.47;;;;;;;;;;4961323;28;20202;-86
2022/04/14 01:13:32;;;;;;;1.40;1.30;;;;;;;;;;4978404;28;20212;-86
2022/04/14 01:16:01;;;;;;;5.17;4.37;;;;;;;;;;4978726;28;20225;-86
2022/04/14 01:18:29;;;;;;;1.43;1.43;;;;;;;;;;4965051;28;20207;-86
2022/04/14 01:20:59;;;;;;;3.20;2.53;;;;;;;;;;4955984;29;20210;-86
2022/04/14 01:23:42;;;;;;;4.47;3.47;;;;;;;;;;4962258;29;20197;-86
2022/04/14 01:26:11;;;;;;;2.13;2.03;;;;;;;;;;4962729;28;20208;-86
2022/04/14 01:28:39;;;;;;;3.07;2.33;;;;;;;;;;4945718;29;20241;-86
2022/04/14 01:31:08;;;;;;;1.37;1.17;;;;;;;;;;4962277;29;20198;-86
2022/04/14 01:33:36;;;;;;;3.23;2.93;;;;;;;;;;4962010;29;20206;-86
2022/04/14 01:36:05;;;;;;;4.03;2.70;;;;;;;;;;4962719;28;20224;-86
2022/04/14 01:38:34;;;;;;;1.27;1.27;;;;;;;;;;4963380;29;20205;-86
2022/04/14 01:41:04;;;;;;;0.77;0.77;;;;;;;;;;4945634;29;20221;-86
2022/04/14 01:43:32;;;;;;;2.53;2.33;;;;;;;;;;4945820;29;20206;-86
2022/04/14 01:46:00;;;;;;;4.07;3.70;;;;;;;;;;4962440;28;20198;-86
2022/04/14 01:48:30;;;;;;;0.50;0.50;;;;;;;;;;4961857;29;20206;-86
2022/04/14 01:50:58;;;;;;;0.53;0.53;;;;;;;;;;4962531;29;20205;-86
2022/04/14 01:53:27;;;;;;;0.80;0.80;;;;;;;;;;4945963;29;20213;-86
2022/04/14 01:55:55;;;;;;;1.17;1.17;;;;;;;;;;4945473;29;20214;-86
2022/04/14 01:58:25;;;;;;;0.80;0.80;;;;;;;;;;4962109;29;20206;-86
2022/04/14 02:00:54;;;;;;;2.00;1.80;;;;;;;;;;4945396;29;20260;-86
2022/04/14 02:03:22;;;;;;;2.40;1.87;;;;;;;;;;4944771;29;20217;-86
2022/04/14 02:05:51;;;;;;;4.33;2.37;;;;;;;;;;4962472;29;20230;-86
2022/04/14 02:08:19;;;;;;;10.60;8.00;;;;;;;;;;4962501;29;20206;-86
2022/04/14 02:10:47;;;;;;;5.40;2.83;;;;;;;;;;4962385;29;20232;-86
2022/04/14 02:13:16;;;;;;;6.30;3.57;;;;;;;;;;4961461;29;20209;-86
2022/04/14 02:15:46;;;;;;;12.03;7.13;;;;;;;;;;4945093;29;20308;-86
2022/04/14 02:18:14;;;;;;;7.17;4.67;;;;;;;;;;4960771;29;20205;-86
2022/04/14 02:20:43;;;;;;;15.93;6.93;;;;;;;;;;4952425;28;20209;-86
2022/04/14 02:23:11;;;;;;;9.50;6.27;;;;;;;;;;4981896;28;20205;-86
2022/04/14 02:25:40;;;;;;;12.43;8.00;;;;;;;;;;4981575;28;20217;-86
2022/04/14 02:28:09;;;;;;;6.53;3.63;;;;;;;;;;4963254;28;20241;-86
2022/04/14 02:30:37;;;;;;;3.37;2.33;;;;;;;;;;4980232;28;20213;-86
2022/04/14 02:33:07;;;;;;;2.50;2.30;;;;;;;;;;4981371;28;20282;-86
2022/04/14 02:35:36;;;;;;;15.17;4.10;;;;;;;;;;4963770;28;20200;-86
2022/04/14 02:38:04;;;;;;;2.90;2.70;;;;;;;;;;4980345;28;20233;-86
2022/04/14 02:40:32;;;;;;;1.63;1.63;;;;;;;;;;4981478;28;20193;-86
2022/04/14 02:43:01;;;;;;;16.03;7.80;;;;;;;;;;4981301;28;20205;-86
2022/04/14 02:45:30;;;;;;;2.83;2.57;;;;;;;;;;4980437;28;20206;-86
2022/04/14 02:47:58;;;;;;;2.00;1.90;;;;;;;;;;4979884;28;20201;-86
2022/04/14 02:50:28;;;;;;;11.53;3.87;;;;;;;;;;4964069;28;20201;-86
2022/04/14 02:52:57;;;;;;;9.83;5.43;;;;;;;;;;4951538;29;20214;-86
2022/04/14 02:55:26;;;;;;;6.27;5.03;;;;;;;;;;4978293;28;20296;-86
2022/04/14 02:57:54;;;;;;;5.20;3.83;;;;;;;;;;4964303;28;20228;-86
2022/04/14 03:00:22;;;;;;;6.33;3.10;;;;;;;;;;4959278;29;20198;-86
2022/04/14 03:02:51;;;;;;;3.23;2.27;;;;;;;;;;4960629;28;20201;-87
2022/04/14 03:05:19;;;;;;;5.43;1.83;;;;;;;;;;4960487;28;20249;-86
2022/04/14 03:07:49;;;;;;;1.70;1.67;;;;;;;;;;4960485;28;20213;-86
2022/04/14 03:10:17;;;;;;;1.13;0.90;;;;;;;;;;4944817;29;20228;-86
2022/04/14 03:12:47;;;;;;;0.57;0.57;;;;;;;;;;4944316;29;20198;-86
2022/04/14 03:15:16;;;;;;;2.03;1.93;;;;;;;;;;4976392;28;20214;-86
2022/04/14 03:17:44;;;;;;;1.53;1.50;;;;;;;;;;4976726;28;20240;-86
2022/04/14 03:20:13;;;;;;;2.50;2.30;;;;;;;;;;4960337;29;20203;-86
2022/04/14 03:22:41;;;;;;;0.70;0.70;;;;;;;;;;4944256;29;20206;-86
2022/04/14 03:25:13;;;;;;;3.43;2.50;;;;;;;;;;4961725;29;20204;-86
2022/04/14 03:27:42;;;;;;;4.03;3.03;;;;;;;;;;4960938;28;20198;-86
2022/04/14 03:30:11;;;;;;;2.30;2.20;;;;;;;;;;4944171;29;20206;-86
2022/04/14 03:32:43;;;;;;;1.43;1.33;;;;;;;;;;4960674;29;20212;-86
2022/04/14 03:35:12;;;;;;;0.70;0.70;;;;;;;;;;4944378;29;20277;-86
2022/04/14 03:37:40;;;;;;;1.73;1.70;;;;;;;;;;4961192;29;20218;-85
2022/04/14 03:40:10;;;;;;;1.53;1.43;;;;;;;;;;4961368;28;20217;-86
2022/04/14 03:42:40;;;;;;;1.87;1.73;;;;;;;;;;4944184;29;20241;-86
2022/04/14 03:45:09;;;;;;;1.57;1.53;;;;;;;;;;4960656;29;20202;-86
2022/04/14 03:47:38;;;;;;;7.37;5.73;;;;;;;;;;4944238;29;20197;-85
2022/04/14 03:50:06;;;;;;;2.23;2.13;;;;;;;;;;4960769;29;20206;-85
2022/04/14 03:52:35;;;;;;;1.10;1.10;;;;;;;;;;4944809;29;20210;-85
2022/04/14 03:55:03;;;;;;;0.90;0.90;;;;;;;;;;4944459;29;20265;-85
2022/04/14 03:57:32;;;;;;;1.33;1.33;;;;;;;;;;4943585;29;20249;-85
2022/04/14 04:00:02;;;;;;;0.77;0.77;;;;;;;;;;4948037;28;20212;-85
2022/04/14 04:02:30;;;;;;;1.93;1.93;;;;;;;;;;4963112;28;20208;-86
2022/04/14 04:05:00;;;;;;;0.63;0.63;;;;;;;;;;4963378;28;20304;-86
2022/04/14 04:07:28;;;;;;;0.60;0.60;;;;;;;;;;4962891;28;20203;-86
2022/04/14 04:09:57;;;;;;;1.27;1.27;;;;;;;;;;4961413;28;20197;-85
2022/04/14 04:12:25;;;;;;;0.50;0.50;;;;;;;;;;4958642;28;20209;-85
2022/04/14 04:14:54;;;;;;;1.53;1.37;;;;;;;;;;4958438;28;20273;-85
2022/04/14 04:17:23;;;;;;;2.57;2.37;;;;;;;;;;4958703;28;20248;-85
2022/04/14 04:19:52;;;;;;;11.63;5.90;;;;;;;;;;4958341;28;20197;-85
2022/04/14 04:22:20;;;;;;;1.10;1.10;;;;;;;;;;4958696;28;20205;-86
2022/04/14 04:24:52;;;;;;;1.57;1.47;;;;;;;;;;4958425;28;20205;-86
2022/04/14 04:27:20;;;;;;;3.37;2.67;;;;;;;;;;4958456;28;20361;-85
2022/04/14 04:29:49;;;;;;;18.23;10.77;;;;;;;;;;4958165;28;20240;-84
2022/04/14 04:32:17;;;;;;;14.00;6.63;;;;;;;;;;4958243;28;20209;-84
2022/04/14 04:34:47;;;;;;;3.40;3.20;;;;;;;;;;4958085;28;20273;-85
2022/04/14 04:37:15;;;;;;;0.60;0.60;;;;;;;;;;4958161;28;20225;-85
2022/04/14 04:39:44;;;;;;;0.50;0.50;;;;;;;;;;4958226;28;20205;-86
2022/04/14 04:42:12;;;;;;;0.60;0.60;;;;;;;;;;4958045;28;20205;-86
2022/04/14 04:44:40;;;;;;;0.77;0.77;;;;;;;;;;4957693;28;20208;-85
2022/04/14 04:47:09;;;;;;;1.03;1.03;;;;;;;;;;4957234;28;20240;-85
2022/04/14 04:49:37;;;;;;;0.70;0.70;;;;;;;;;;4957719;28;20259;-85
2022/04/14 04:52:08;;;;;;;0.60;0.60;;;;;;;;;;4973977;28;20200;-85
2022/04/14 04:54:36;;;;;;;0.60;0.60;;;;;;;;;;4957794;28;20208;-85
2022/04/14 04:57:05;;;;;;;0.60;0.60;;;;;;;;;;4957410;28;20205;-85
2022/04/14 04:59:34;;;;;;;1.83;1.80;;;;;;;;;;4957181;28;20244;-84
2022/04/14 05:02:03;;;;;;;1.53;1.43;;;;;;;;;;4973378;28;20208;-85
2022/04/14 05:04:31;;;;;;;0.60;0.60;;;;;;;;;;4957442;28;20236;-85
2022/04/14 05:07:00;;;;;;;1.73;1.73;;;;;;;;;;4957184;28;20252;-85
2022/04/14 05:09:29;;;;;;;0.70;0.70;;;;;;;;;;4957869;28;20294;-85
2022/04/14 05:11:58;;;;;;;1.57;1.47;;;;;;;;;;4974462;28;20212;-85
2022/04/14 05:14:26;;;;;;;2.90;1.80;;;;;;;;;;4957524;28;20201;-85
2022/04/14 05:16:55;;;;;;;1.80;1.27;;;;;;;;;;4957436;28;20196;-85
2022/04/14 05:19:23;;;;;;;2.50;2.40;;;;;;;;;;4957444;28;20223;-85
2022/04/14 05:21:52;;;;;;;0.83;0.83;;;;;;;;;;4974433;28;20198;-85
2022/04/14 05:24:21;;;;;;;0.50;0.50;;;;;;;;;;4957589;28;20252;-87
2022/04/14 05:26:51;;;;;;;10.27;6.30;;;;;;;;;;4974742;28;20208;-86
2022/04/14 05:29:19;;;;;;;0.77;0.77;;;;;;;;;;4958287;28;20237;-86
2022/04/14 05:31:47;;;;;;;2.80;2.60;;;;;;;;;;4958497;28;20209;-86
2022/04/14 05:34:16;;;;;;;0.90;0.90;;;;;;;;;;4975715;28;20212;-86
2022/04/14 05:36:44;;;;;;;1.60;1.50;;;;;;;;;;4958528;28;20201;-86
2022/04/14 05:39:13;;;;;;;1.83;1.77;;;;;;;;;;4958325;28;20213;-86
2022/04/14 05:41:41;;;;;;;4.77;1.60;;;;;;;;;;4957950;28;20204;-85
2022/04/14 05:44:11;;;;;;;1.00;1.00;;;;;;;;;;4976081;28;20260;-82
2022/04/14 05:46:40;;;;;;;1.53;1.43;;;;;;;;;;4957358;28;20208;-82
2022/04/14 05:49:08;;;;;;;2.80;2.70;;;;;;;;;;4973372;28;20205;-83
2022/04/14 05:51:37;;;;;;;0.87;0.87;;;;;;;;;;4973348;28;20209;-83
2022/04/14 05:54:05;;;;;;;0.80;0.80;;;;;;;;;;4974493;28;20212;-84
2022/04/14 05:56:33;;;;;;;0.80;0.80;;;;;;;;;;4973921;28;20205;-84
2022/04/14 05:59:02;;;;;;;0.93;0.93;;;;;;;;;;4973951;28;20276;-84
2022/04/14 06:01:31;;;;;;;1.97;1.90;;;;;;;;;;4956894;28;20329;-84
2022/04/14 06:04:00;;;;;;;0.70;0.70;;;;;;;;;;4960499;28;20232;-84
2022/04/14 06:06:28;;;;;;;0.97;0.97;;;;;;;;;;4960412;28;20229;-84
2022/04/14 06:08:57;;;;;;;1.23;1.17;;;;;;;;;;4960218;28;20198;-84
2022/04/14 06:11:25;;;;;;;5.17;3.80;;;;;;;;;;4960437;28;20200;-84
2022/04/14 06:13:54;;;;;;;2.97;2.27;;;;;;;;;;4977497;28;20200;-84
2022/04/14 06:16:22;;;;;;;1.17;1.17;;;;;;;;;;4976687;28;20197;-84
2022/04/14 06:18:55;;;;;;;1.67;1.63;;;;;;;;;;4955263;28;20276;-84
2022/04/14 06:21:23;;;;;;;4.83;2.70;;;;;;;;;;4977159;28;20205;-84
2022/04/14 06:23:56;;;;;;;1.17;1.07;;;;;;;;;;4960094;28;20194;-84
2022/04/14 06:26:24;;;;;;;0.50;0.50;;;;;;;;;;4975838;28;20237;-84
2022/04/14 06:28:52;;;;;;;7.20;4.33;;;;;;;;;;4959804;28;20305;-84
2022/04/14 06:31:21;;;;;;;1.57;1.50;;;;;;;;;;4959932;28;20210;-84
2022/04/14 06:33:49;;;;;;;0.67;0.67;;;;;;;;;;4959986;28;20206;-85
2022/04/14 06:36:19;;;;;;;2.50;2.30;;;;;;;;;;4959944;28;20207;-84
2022/04/14 06:38:48;;;;;;;3.20;2.97;;;;;;;;;;4976849;28;20227;-84
2022/04/14 06:41:16;;;;;;;4.13;3.93;;;;;;;;;;4960038;28;20208;-84
2022/04/14 06:43:45;;;;;;;1.30;1.30;;;;;;;;;;4960302;28;20218;-85
2022/04/14 06:46:13;;;;;;;1.37;1.37;;;;;;;;;;4959552;28;20202;-84
2022/04/14 06:48:42;;;;;;;2.73;2.53;;;;;;;;;;4959949;28;20202;-84
2022/04/14 06:51:10;;;;;;;6.40;5.13;;;;;;;;;;4959770;28;20203;-84
2022/04/14 06:53:43;;;;;;;1.63;1.63;;;;;;;;;;4959373;28;20306;-84
2022/04/14 06:56:12;;;;;;;0.70;0.70;;;;;;;;;;4959514;28;20230;-84
2022/04/14 06:58:42;;;;;;;0.60;0.60;;;;;;;;;;4959551;28;20233;-84
2022/04/14 07:01:10;;;;;;;0.50;0.50;;;;;;;;;;4975770;28;20294;-84
2022/04/14 07:03:39;;;;;;;0.50;0.50;;;;;;;;;;4959483;28;20270;-84
2022/04/14 07:06:11;;;;;;;0.97;0.97;;;;;;;;;;4951752;28;20301;-84
2022/04/14 07:08:41;;;;;;;3.93;3.53;;;;;;;;;;4948304;28;20201;-86
2022/04/14 07:11:10;;;;;;;1.23;1.23;;;;;;;;;;4969349;28;20207;-85
2022/04/14 07:13:39;;;;;;;3.47;2.73;;;;;;;;;;4951904;28;20196;-85
2022/04/14 07:16:17;;;;;;;;;;;;;;;;;;;;;
2022/04/14 07:19:06;;;;;;;1.17;1.17;;;;;;;;;;4974293;28;20220;-83
2022/04/14 07:21:35;;;;;;;1.70;1.60;;;;;;;;;;4969482;28;20207;-84
2022/04/14 07:24:07;;;;;;;0.57;0.57;;;;;;;;;;4971445;28;20197;-85
2022/04/14 07:26:36;;;;;;;1.10;1.03;;;;;;;;;;4966150;28;20205;-85
2022/04/14 07:29:05;;;;;;;1.07;1.07;;;;;;;;;;4952862;28;20232;-86
2022/04/14 07:31:35;;;;;;;1.03;1.03;;;;;;;;;;4955250;28;20222;-85
2022/04/14 07:34:06;;;;;;;1.13;1.13;;;;;;;;;;4957428;28;20211;-86
2022/04/14 07:36:35;;;;;;;1.73;1.63;;;;;;;;;;4956608;28;20229;-85
2022/04/14 07:39:04;;;;;;;0.80;0.80;;;;;;;;;;4951743;28;20240;-85
2022/04/14 07:41:35;;;;;;;6.33;4.03;;;;;;;;;;4952596;28;20207;-85
2022/04/14 07:44:04;;;;;;;3.70;2.83;;;;;;;;;;4953318;28;20209;-84
2022/04/14 07:46:37;;;;;;;2.33;1.47;;;;;;;;;;4952961;28;20200;-85
2022/04/14 07:49:06;;;;;;;1.53;1.43;;;;;;;;;;4972308;28;20281;-86
2022/04/14 07:51:35;;;;;;;3.73;2.50;;;;;;;;;;4951761;28;20343;-86
2022/04/14 07:54:04;;;;;;;4.97;2.80;;;;;;;;;;4953686;28;20205;-85
2022/04/14 07:56:33;;;;;;;2.37;2.23;;;;;;;;;;4954670;28;20216;-86
2022/04/14 07:59:03;;;;;;;2.80;2.60;;;;;;;;;;4957943;28;20223;-85
2022/04/14 08:01:35;;;;;;;4.47;2.90;;;;;;;;;;4956166;28;20209;-87
2022/04/14 08:04:05;;;;;;;0.77;0.77;;;;;;;;;;4953826;28;20217;-84
2022/04/14 08:06:45;;;;;;;0.50;0.50;;;;;;;;;;4970967;28;20224;-86
2022/04/14 08:09:34;;;;;;;0.80;0.80;;;;;;;;;;4954144;28;20208;-86
2022/04/14 08:12:05;;;;;;;0.77;0.77;;;;;;;;;;4953740;28;20208;-84
2022/04/14 08:14:38;;;;;;;1.90;1.73;;;;;;;;;;4973607;28;20380;-86
2022/04/14 08:17:07;;;;;;;2.00;1.90;;;;;;;;;;4976403;28;20225;-85
2022/04/14 08:19:40;;;;;;;1.30;1.30;;;;;;;;;;4971305;28;20242;-87
2022/04/14 08:25:17;;;;;;;2.10;2.00;;;;;;;;;;4959779;28;20208;-85
2022/04/14 08:27:50;;;;;;;1.83;1.73;;;;;;;;;;4957295;28;20284;-88
2022/04/14 08:30:22;;;;;;;3.63;2.77;;;;;;;;;;4950916;28;20201;-87
2022/04/14 08:33:06;;;;;;;1.70;1.60;;;;;;;;;;4952020;28;20204;-89
2022/04/14 08:35:41;;;;;;;2.30;2.10;;;;;;;;;;4964481;28;20204;-88
2022/04/14 08:38:13;;;;;;;1.20;1.20;;;;;;;;;;4952392;28;20194;-87
2022/04/14 08:40:57;;;;;;;2.50;2.23;;;;;;;;;;4953759;28;20220;-90
2022/04/14 08:43:44;;;;;;;3.13;2.20;;;;;;;;;;4951717;28;20214;-87
2022/04/14 08:46:16;;;;;;;1.00;1.00;;;;;;;;;;4967136;28;20206;-91
2022/04/14 08:48:45;;;;;;;1.23;1.07;;;;;;;;;;4970371;28;20233;-90
2022/04/14 08:51:14;;;;;;;3.40;1.83;;;;;;;;;;4954299;28;20231;-88
2022/04/14 08:53:43;;;;;;;4.43;4.03;;;;;;;;;;4976780;28;20253;-88
2022/04/14 08:59:10;;;;;;;3.13;2.33;;;;;;;;;;4952613;28;20289;-89
2022/04/14 09:01:40;;;;;;;5.30;1.83;;;;;;;;;;4955612;28;20203;-86
2022/04/14 09:04:10;;;;;;;0.77;0.77;;;;;;;;;;4972452;28;20216;-88
2022/04/14 09:06:49;;;;;;;3.17;2.13;;;;;;;;;;4955811;28;20204;-86
2022/04/14 09:09:19;;;;;;;4.47;2.93;;;;;;;;;;4965019;28;20193;-88
2022/04/14 09:11:50;;;;;;;1.50;1.40;;;;;;;;;;4952338;28;20289;-89
2022/04/14 09:14:24;;;;;;;5.87;3.10;;;;;;;;;;4949846;28;20206;-88
2022/04/14 09:16:56;;;;;;;2.77;2.50;;;;;;;;;;4956410;28;20263;-87
2022/04/14 09:19:31;;;;;;;1.90;1.73;;;;;;;;;;4983209;28;20240;-88
2022/04/14 09:22:23;;;;;;;4.83;4.33;;;;;;;;;;4967077;28;20187;-88
2022/04/14 09:24:52;;;;;;;4.70;3.33;;;;;;;;;;4958324;28;20244;-88
2022/04/14 09:27:29;;;;;;;4.97;4.43;;;;;;;;;;4964282;28;20186;-87
2022/04/14 09:30:03;;;;;;;7.00;5.47;;;;;;;;;;4965479;28;20212;-87
2022/04/14 09:32:39;;;;;;;1.70;1.60;;;;;;;;;;4965596;28;20206;-88
2022/04/14 09:35:17;;;;;;;3.53;3.23;;;;;;;;;;4973305;28;20231;-85
2022/04/14 09:37:51;;;;;;;4.93;3.70;;;;;;;;;;4959611;28;20258;-86
2022/04/14 09:40:37;;;;;;;15.73;3.87;;;;;;;;;;4962281;28;20315;-86
2022/04/14 09:43:08;;;;;;;5.13;4.33;;;;;;;;;;4975570;28;20241;-85
2022/04/14 09:45:37;;;;;;;5.80;4.77;;;;;;;;;;4954539;28;20211;-86
2022/04/14 09:48:10;;;;;;;1.83;1.47;;;;;;;;;;4957562;28;20199;-83
2022/04/14 09:50:40;;;;;;;4.43;3.93;;;;;;;;;;4955980;28;20205;-85
2022/04/14 09:53:11;;;;;;;15.10;13.97;;;;;;;;;;4956648;28;20199;-84
2022/04/14 09:55:58;;;;;;;5.67;5.07;;;;;;;;;;4968220;28;20296;-85
2022/04/14 09:58:28;;;;;;;7.50;6.73;;;;;;;;;;4954804;28;20206;-84
2022/04/14 10:00:58;;;;;;;8.43;4.37;;;;;;;;;;4959949;28;20939;-84
2022/04/14 10:03:29;;;;;;;6.93;4.57;;;;;;;;;;4954336;28;20202;-84
2022/04/14 10:05:59;;;;;;;3.33;2.60;;;;;;;;;;4969832;28;20234;-81
2022/04/14 10:08:29;;;;;;;6.53;3.90;;;;;;;;;;4950533;28;20212;-82
2022/04/14 10:11:05;;;;;;;4.17;2.73;;;;;;;;;;4970116;28;20198;-84
2022/04/14 10:13:35;;;;;;;4.97;3.97;;;;;;;;;;4947979;28;20202;-82
2022/04/14 10:16:04;;;;;;;4.43;4.03;;;;;;;;;;4968961;28;20200;-83
2022/04/14 10:18:35;;;;;;;13.43;3.17;;;;;;;;;;4968448;28;20203;-84
2022/04/14 10:21:03;;;;;;;4.13;3.50;;;;;;;;;;4955732;28;20300;-84
2022/04/14 10:23:33;;;;;;;7.80;6.10;;;;;;;;;;4970032;28;20213;-85
2022/04/14 10:26:02;;;;;;;3.80;3.30;;;;;;;;;;4958468;28;20201;-86
2022/04/14 10:28:31;;;;;;;4.40;4.00;;;;;;;;;;4961182;28;21221;-86
2022/04/14 10:31:03;;;;;;;5.63;4.07;;;;;;;;;;4974496;28;20223;-87
2022/04/14 10:33:34;;;;;;;11.90;5.03;;;;;;;;;;4953382;28;20272;-87
2022/04/14 10:36:05;;;;;;;6.60;5.17;;;;;;;;;;4955170;28;20197;-86
2022/04/14 10:38:35;;;;;;;6.80;5.43;;;;;;;;;;4966922;28;20217;-87
2022/04/14 10:41:13;;;;;;;8.77;6.80;;;;;;;;;;4957271;28;20244;-87
2022/04/14 10:43:43;;;;;;;2.73;2.50;;;;;;;;;;4947434;28;20296;-88
2022/04/14 10:46:16;;;;;;;7.37;4.07;;;;;;;;;;4954725;28;20212;-86
2022/04/14 10:48:47;;;;;;;7.40;6.50;;;;;;;;;;4980141;28;20204;-84
2022/04/14 10:51:25;;;;;;;2.63;2.40;;;;;;;;;;4953947;28;20193;-87
2022/04/14 10:53:57;;;;;;;5.30;3.93;;;;;;;;;;4953994;28;20208;-88
2022/04/14 10:56:45;;;;;;;3.33;2.93;;;;;;;;;;4948450;28;20248;-88
2022/04/14 10:59:15;;;;;;;7.23;6.47;;;;;;;;;;4968616;28;20215;-89
2022/04/14 11:01:58;;;;;;;6.53;5.17;;;;;;;;;;4950966;28;20222;-88
2022/04/14 11:04:31;;;;;;;8.57;3.97;;;;;;;;;;4949930;28;20296;-87
2022/04/14 11:07:02;;;;;;;2.77;2.57;;;;;;;;;;4955421;28;20232;-88
2022/04/14 11:09:59;;;;;;;6.60;5.23;;;;;;;;;;4967095;28;20205;-87
2022/04/14 11:12:32;;;;;;;5.90;4.60;;;;;;;;;;4964802;28;20198;-89
2022/04/14 11:15:09;;;;;;;1.67;1.63;;;;;;;;;;4952593;28;20197;-88
2022/04/14 11:18:02;;;;;;;4.73;3.77;;;;;;;;;;4968604;28;20215;-88
2022/04/14 11:21:06;;;;;;;3.27;2.90;;;;;;;;;;4966909;28;20278;-88
2022/04/14 11:23:36;;;;;;;10.03;6.63;;;;;;;;;;4956188;28;20209;-87
2022/04/14 11:26:09;;;;;;;5.93;3.83;;;;;;;;;;4953422;28;20244;-86
2022/04/14 11:28:39;;;;;;;4.13;2.50;;;;;;;;;;4955274;28;20243;-86
2022/04/14 11:31:23;;;;;;;2.83;2.10;;;;;;;;;;4951572;28;20190;-88
2022/04/14 11:33:53;;;;;;;1.93;1.73;;;;;;;;;;4954387;28;20228;-87
2022/04/14 11:36:25;;;;;;;6.87;5.73;;;;;;;;;;4954181;28;20202;-86
2022/04/14 11:39:06;;;;;;;5.63;5.07;;;;;;;;;;4957611;28;20230;-88
2022/04/14 11:41:37;;;;;;;11.70;7.20;;;;;;;;;;4970861;28;20251;-88
2022/04/14 11:44:08;;;;;;;6.27;5.40;;;;;;;;;;4957343;28;20209;-88
2022/04/14 11:46:43;;;;;;;4.50;3.47;;;;;;;;;;4954295;28;20198;-88
2022/04/14 11:49:18;;;;;;;9.53;6.07;;;;;;;;;;4949460;28;20212;-89
2022/04/14 11:51:48;;;;;;;5.30;3.67;;;;;;;;;;4955398;28;20202;-87
2022/04/14 11:54:22;;;;;;;8.30;5.97;;;;;;;;;;4949134;28;20212;-89
2022/04/14 11:57:09;;;;;;;4.87;4.13;;;;;;;;;;4954624;28;20245;-88
2022/04/14 11:59:48;;;;;;;8.60;4.90;;;;;;;;;;4949180;28;20205;-87
2022/04/14 12:02:18;;;;;;;9.17;7.17;;;;;;;;;;4952570;28;20218;-87
2022/04/14 12:04:51;;;;;;;7.00;4.73;;;;;;;;;;4952410;28;20200;-88
2022/04/14 12:07:20;;;;;;;11.83;7.10;;;;;;;;;;4943284;28;20200;-88
2022/04/14 12:10:00;;;;;;;7.67;6.03;;;;;;;;;;4949435;28;20256;-87
2022/04/14 12:12:31;;;;;;;7.70;4.00;;;;;;;;;;4947580;28;20210;-87
2022/04/14 12:15:04;;;;;;;7.57;6.40;;;;;;;;;;4952998;28;20213;-88
2022/04/14 12:17:36;;;;;;;7.93;3.30;;;;;;;;;;4953541;28;20212;-88
2022/04/14 12:20:10;;;;;;;4.70;4.23;;;;;;;;;;4951856;28;20299;-88
2022/04/14 12:22:39;;;;;;;10.63;7.50;;;;;;;;;;4943251;28;20218;-88
2022/04/14 12:25:12;;;;;;;9.90;4.97;;;;;;;;;;4953015;28;20214;-88
2022/04/14 12:27:42;;;;;;;1.67;1.43;;;;;;;;;;4953086;28;20204;-88
2022/04/14 12:30:14;;;;;;;10.10;6.53;;;;;;;;;;4951974;28;20256;-88
2022/04/14 12:32:48;;;;;;;11.60;8.83;;;;;;;;;;4952076;28;20207;-88
2022/04/14 12:35:36;;;;;;;1.70;1.60;;;;;;;;;;4947898;28;20214;-88
2022/04/14 12:38:15;;;;;;;8.03;7.17;;;;;;;;;;4950355;28;20195;-88
2022/04/14 12:40:55;;;;;;;1.70;1.23;;;;;;;;;;4953873;28;20209;-87
2022/04/14 12:43:40;;;;;;;8.37;5.43;;;;;;;;;;4945635;28;20223;-88
2022/04/14 12:46:22;;;;;;;4.70;3.93;;;;;;;;;;4947563;28;20214;-87
2022/04/14 12:49:02;;;;;;;8.70;6.17;;;;;;;;;;4945899;28;20232;-84
2022/04/14 12:51:54;;;;;;;3.63;3.43;;;;;;;;;;4968082;28;20201;-83
2022/04/14 12:54:24;;;;;;;4.67;4.10;;;;;;;;;;4936606;29;20278;-83
2022/04/14 12:57:12;;;;;;;6.27;5.30;;;;;;;;;;4937037;29;20237;-83
2022/04/14 12:59:59;;;;;;;5.70;4.57;;;;;;;;;;4940018;28;20209;-84
2022/04/14 13:02:28;;;;;;;8.03;4.37;;;;;;;;;;4957440;28;20239;-84
2022/04/14 13:05:06;;;;;;;5.70;3.07;;;;;;;;;;4957416;28;20210;-83
2022/04/14 13:07:45;;;;;;;5.83;5.20;;;;;;;;;;4957189;28;20274;-85
2022/04/14 13:10:14;;;;;;;7.03;5.30;;;;;;;;;;4973310;28;20296;-84
2022/04/14 13:12:46;;;;;;;8.90;6.63;;;;;;;;;;4972246;28;20284;-84
2022/04/14 13:15:15;;;;;;;10.37;5.60;;;;;;;;;;4956462;28;20204;-84
2022/04/14 13:17:44;;;;;;;5.67;5.17;;;;;;;;;;4956961;28;20210;-84
2022/04/14 13:20:13;;;;;;;7.97;4.83;;;;;;;;;;4957079;28;20197;-83
2022/04/14 13:22:42;;;;;;;5.27;4.53;;;;;;;;;;4957314;28;20316;-84
2022/04/14 13:25:11;;;;;;;8.00;6.97;;;;;;;;;;4973166;28;20215;-84
2022/04/14 13:27:40;;;;;;;13.33;7.53;;;;;;;;;;4957282;28;20212;-84
2022/04/14 13:30:10;;;;;;;13.50;5.47;;;;;;;;;;4956901;28;20243;-84
2022/04/14 13:32:39;;;;;;;4.23;3.77;;;;;;;;;;4957203;28;20205;-84
2022/04/14 13:35:08;;;;;;;7.30;4.17;;;;;;;;;;4973580;28;20207;-85
2022/04/14 13:37:37;;;;;;;9.43;4.83;;;;;;;;;;4957218;28;20201;-85
2022/04/14 13:40:07;;;;;;;7.27;4.87;;;;;;;;;;4957218;28;20205;-84
2022/04/14 13:42:36;;;;;;;5.57;3.53;;;;;;;;;;4957425;28;20265;-85
2022/04/14 13:45:05;;;;;;;7.90;4.83;;;;;;;;;;4973363;28;20208;-84
2022/04/14 13:47:35;;;;;;;7.60;5.87;;;;;;;;;;4957194;28;20210;-84
2022/04/14 13:50:03;;;;;;;6.67;4.93;;;;;;;;;;4957197;28;20208;-84
2022/04/14 13:52:32;;;;;;;7.70;5.73;;;;;;;;;;4973121;28;20202;-84
2022/04/14 13:55:01;;;;;;;10.00;6.40;;;;;;;;;;4956652;28;20200;-84
2022/04/14 13:57:30;;;;;;;11.73;8.07;;;;;;;;;;4956963;28;20232;-83
2022/04/14 13:59:58;;;;;;;4.00;3.23;;;;;;;;;;4968680;28;20220;-84
2022/04/14 14:02:27;;;;;;;8.40;5.97;;;;;;;;;;4953487;29;20230;-84
2022/04/14 14:04:57;;;;;;;6.73;4.73;;;;;;;;;;4937879;29;20301;-85
2022/04/14 14:07:27;;;;;;;10.83;6.13;;;;;;;;;;4938765;29;20248;-88
2022/04/14 14:10:00;;;;;;;3.23;2.33;;;;;;;;;;4939905;29;20210;-90
2022/04/14 14:12:36;;;;;;;6.87;4.97;;;;;;;;;;4939692;29;20213;-88
2022/04/14 14:15:16;;;;;;;7.93;5.37;;;;;;;;;;4939484;29;20236;-89
2022/04/14 14:18:07;;;;;;;3.13;2.93;;;;;;;;;;4938786;29;20216;-90
2022/04/14 14:20:43;;;;;;;6.57;4.27;;;;;;;;;;4954432;29;20210;-89
2022/04/14 14:23:19;;;;;;;6.40;2.77;;;;;;;;;;4940081;29;20229;-89
2022/04/14 14:25:55;;;;;;;7.50;5.70;;;;;;;;;;4942567;29;20256;-90
2022/04/14 14:28:33;;;;;;;3.43;3.13;;;;;;;;;;4942228;29;20220;-90
2022/04/14 14:31:17;;;;;;;9.30;5.33;;;;;;;;;;4942599;29;20213;-90
2022/04/14 14:33:53;;;;;;;6.90;4.57;;;;;;;;;;4942131;29;20193;-90
2022/04/14 14:36:34;;;;;;;7.50;4.93;;;;;;;;;;4942581;29;20296;-89
2022/04/14 14:39:23;;;;;;;3.27;2.67;;;;;;;;;;4942746;29;20213;-89
2022/04/14 14:41:57;;;;;;;2.90;2.70;;;;;;;;;;4942249;29;20298;-90
2022/04/14 14:44:50;;;;;;;8.90;6.53;;;;;;;;;;4942716;29;20316;-90
2022/04/14 14:50:35;;;;;;;7.07;5.20;;;;;;;;;;4935611;29;20205;-88
2022/04/14 14:53:17;;;;;;;10.13;5.07;;;;;;;;;;4942436;29;20197;-88
2022/04/14 14:55:54;;;;;;;3.17;2.63;;;;;;;;;;4942316;29;20215;-89
2022/04/14 15:01:18;;;;;;;6.03;3.57;;;;;;;;;;4961545;28;20205;-89
2022/04/14 15:04:00;;;;;;;4.37;3.53;;;;;;;;;;4960846;28;20276;-89
2022/04/14 15:06:39;;;;;;;5.20;4.53;;;;;;;;;;4960057;28;20235;-89
2022/04/14 15:09:44;;;;;;;5.20;3.07;;;;;;;;;;4961851;28;20231;-88
2022/04/14 15:12:24;;;;;;;2.93;2.70;;;;;;;;;;4962465;28;20376;-89
2022/04/14 15:14:59;;;;;;;5.23;4.60;;;;;;;;;;4961662;28;20204;-89
2022/04/14 15:17:36;;;;;;;5.43;4.73;;;;;;;;;;4961409;28;20272;-90
2022/04/14 15:20:19;;;;;;;3.23;2.63;;;;;;;;;;4961397;28;20206;-89
2022/04/14 15:23:18;;;;;;;3.40;3.10;;;;;;;;;;4961423;28;20290;-90